createdAt,value
2023-01-08T00:01:22.541Z,98812.91
2023-01-08T00:03:50.512Z,98810.09
2023-01-08T00:06:21.536Z,98816.25
2023-01-08T00:08:49.634Z,98807.28
2023-01-08T00:11:17.437Z,98817.78
2023-01-08T00:13:45.388Z,98805.31
2023-01-08T00:16:13.282Z,98804.78
2023-01-08T00:18:41.207Z,98811.06
2023-01-08T00:21:09.454Z,98799.03
2023-01-08T00:23:37.257Z,98806.13
2023-01-08T00:26:05.085Z,98797.66
2023-01-08T00:28:33.337Z,98796.56
2023-01-08T00:31:03.572Z,98797.84
2023-01-08T00:33:32.143Z,98785.41
2023-01-08T00:35:59.875Z,98792.22
2023-01-08T00:38:27.618Z,98783.97
2023-01-08T00:40:55.410Z,98786.88
2023-01-08T00:43:23.430Z,98775.78
2023-01-08T00:45:54.028Z,98778.69
2023-01-08T00:48:22.606Z,98783.56
2023-01-08T00:50:50.441Z,98792.09
2023-01-08T00:53:18.229Z,98787.31
2023-01-08T00:55:46.027Z,98789.53
2023-01-08T00:58:14.117Z,98784.75
2023-01-08T01:00:41.807Z,98784.44
2023-01-08T01:03:09.589Z,98772.78
2023-01-08T01:05:37.346Z,98767.59
2023-01-08T01:08:05.351Z,98773.91
2023-01-08T01:10:33.373Z,98765.13
2023-01-08T01:13:01.638Z,98758.94
2023-01-08T01:15:29.263Z,98756.44
2023-01-08T01:17:57.051Z,98753.78
2023-01-08T01:20:25.070Z,98744.97
2023-01-08T01:22:53.161Z,98751.13
2023-01-08T01:25:20.978Z,98760.78
2023-01-08T01:27:48.838Z,98753.47
2023-01-08T01:30:16.702Z,98748.97
2023-01-08T01:32:44.593Z,98752.16
2023-01-08T01:35:13.155Z,98770.81
2023-01-08T01:37:40.919Z,98766.19
2023-01-08T01:40:08.593Z,98759.03
2023-01-08T01:42:44.031Z,98765.72
2023-01-08T01:45:11.787Z,98753.09
2023-01-08T01:47:39.821Z,98758.28
2023-01-08T01:50:07.583Z,98759.81
2023-01-08T01:52:35.252Z,98761.63
2023-01-08T01:55:02.984Z,98755.31
2023-01-08T01:57:30.620Z,98765.97
2023-01-08T01:59:58.752Z,98770.28
2023-01-08T02:02:26.471Z,98768.63
2023-01-08T02:04:54.252Z,98759.81
2023-01-08T02:07:21.883Z,98756.28
2023-01-08T02:09:49.814Z,98765.81
2023-01-08T02:12:20.605Z,98770.00
2023-01-08T02:14:48.221Z,98766.22
2023-01-08T02:17:15.824Z,98763.38
2023-01-08T02:19:43.500Z,98771.06
2023-01-08T02:22:11.143Z,98755.09
2023-01-08T02:24:39.158Z,98749.59
2023-01-08T02:27:06.867Z,98741.78
2023-01-08T02:29:34.519Z,98740.13
2023-01-08T02:32:02.126Z,98730.59
2023-01-08T02:34:32.248Z,98731.34
2023-01-08T02:37:00.220Z,98725.81
2023-01-08T02:39:28.290Z,98726.53
2023-01-08T02:41:56.043Z,98729.53
2023-01-08T02:44:23.682Z,98716.34
2023-01-08T02:46:51.557Z,98722.53
2023-01-08T02:49:19.735Z,98726.00
2023-01-08T02:51:47.337Z,98710.88
2023-01-08T02:54:14.912Z,98709.22
2023-01-08T02:56:42.594Z,98697.19
2023-01-08T02:59:10.239Z,98707.31
2023-01-08T03:01:38.746Z,98700.78
2023-01-08T03:04:06.474Z,98685.13
2023-01-08T03:06:34.166Z,98697.03
2023-01-08T03:09:01.751Z,98686.00
2023-01-08T03:11:29.399Z,98679.31
2023-01-08T03:13:57.378Z,98676.81
2023-01-08T03:16:25.066Z,98667.84
2023-01-08T03:18:52.804Z,98669.34
2023-01-08T03:21:20.476Z,98666.41
2023-01-08T03:23:49.667Z,98657.13
2023-01-08T03:26:17.682Z,98655.84
2023-01-08T03:28:45.321Z,98654.53
2023-01-08T03:31:13.041Z,98650.59
2023-01-08T03:33:40.728Z,98657.44
2023-01-08T03:36:08.329Z,98648.47
2023-01-08T03:38:36.293Z,98655.31
2023-01-08T03:41:03.916Z,98655.47
2023-01-08T03:43:31.511Z,98643.97
2023-01-08T03:45:59.564Z,98647.63
2023-01-08T03:48:27.461Z,98646.81
2023-01-08T03:50:55.543Z,98653.09
2023-01-08T03:53:25.394Z,98643.28
2023-01-08T03:55:53.089Z,98645.81
2023-01-08T03:58:20.692Z,98628.16
2023-01-08T04:00:48.561Z,98629.13
2023-01-08T04:03:16.218Z,98631.78
2023-01-08T04:05:44.102Z,98629.97
2023-01-08T04:08:12.116Z,98626.47
2023-01-08T04:10:39.789Z,98638.81
2023-01-08T04:13:07.581Z,98623.66
2023-01-08T04:15:35.955Z,98629.00
2023-01-08T04:18:03.625Z,98634.31
2023-01-08T04:20:31.256Z,98622.53
2023-01-08T04:22:58.836Z,98618.06
2023-01-08T04:25:26.722Z,98625.03
2023-01-08T04:27:54.743Z,98616.06
2023-01-08T04:30:22.804Z,98623.88
2023-01-08T04:32:50.491Z,98628.38
2023-01-08T04:35:18.114Z,98630.91
2023-01-08T04:37:45.742Z,98620.41
2023-01-08T04:40:13.901Z,98622.91
2023-01-08T04:42:41.536Z,98620.41
2023-01-08T04:45:09.111Z,98616.06
2023-01-08T04:47:36.827Z,98612.72
2023-01-08T04:50:04.592Z,98612.03
2023-01-08T04:52:33.029Z,98608.22
2023-01-08T04:55:00.648Z,98605.44
2023-01-08T04:57:28.216Z,98610.56
2023-01-08T04:59:55.777Z,98607.09
2023-01-08T05:02:23.615Z,98603.38
2023-01-08T05:04:51.747Z,98598.66
2023-01-08T05:07:19.335Z,98613.28
2023-01-08T05:09:47.010Z,98608.09
2023-01-08T05:12:14.629Z,98600.44
2023-01-08T05:14:43.357Z,98607.88
2023-01-08T05:17:11.517Z,98604.84
2023-01-08T05:19:39.195Z,98601.78
2023-01-08T05:22:06.769Z,98598.59
2023-01-08T05:24:34.398Z,98609.41
2023-01-08T05:27:02.035Z,98605.75
2023-01-08T05:29:29.997Z,98598.59
2023-01-08T05:31:57.714Z,98606.03
2023-01-08T05:34:25.371Z,98611.69
2023-01-08T05:36:53.364Z,98609.47
2023-01-08T05:39:21.025Z,98594.94
2023-01-08T05:41:48.809Z,98606.84
2023-01-08T05:44:16.388Z,98601.97
2023-01-08T05:46:44.132Z,98597.78
2023-01-08T05:49:11.749Z,98604.25
2023-01-08T05:51:39.639Z,98591.13
2023-01-08T05:54:07.629Z,98594.06
2023-01-08T05:56:35.316Z,98586.53
2023-01-08T05:59:02.919Z,98582.22
2023-01-08T06:01:30.623Z,98582.06
2023-01-08T06:03:59.095Z,98587.06
2023-01-08T06:06:27.099Z,98587.63
2023-01-08T06:08:54.711Z,98588.16
2023-01-08T06:11:22.307Z,98586.88
2023-01-08T06:13:49.931Z,98593.53
2023-01-08T06:16:18.256Z,98585.25
2023-01-08T06:18:46.083Z,98587.50
2023-01-08T06:21:13.752Z,98591.69
2023-01-08T06:23:41.426Z,98577.09
2023-01-08T06:26:09.033Z,98578.44
2023-01-08T06:28:36.826Z,98570.19
2023-01-08T06:31:04.879Z,98572.84
2023-01-08T06:33:32.530Z,98579.16
2023-01-08T06:36:00.142Z,98578.44
2023-01-08T06:38:27.898Z,98581.28
2023-01-08T06:40:57.109Z,98578.09
2023-01-08T06:43:25.067Z,98579.34
2023-01-08T06:45:52.718Z,98582.31
2023-01-08T06:48:20.332Z,98581.47
2023-01-08T06:50:47.962Z,98568.47
2023-01-08T06:53:15.602Z,98572.28
2023-01-08T06:55:43.595Z,98580.41
2023-01-08T06:58:12.280Z,98577.91
2023-01-08T07:00:39.963Z,98573.59
2023-01-08T07:03:08.167Z,98571.06
2023-01-08T07:05:35.878Z,98581.56
2023-01-08T07:08:03.915Z,98586.03
2023-01-08T07:10:31.678Z,98574.53
2023-01-08T07:12:59.292Z,98585.03
2023-01-08T07:15:26.949Z,98586.56
2023-01-08T07:17:54.582Z,98583.06
2023-01-08T07:20:22.557Z,98592.19
2023-01-08T07:22:50.221Z,98576.25
2023-01-08T07:25:18.287Z,98573.59
2023-01-08T07:27:45.881Z,98564.75
2023-01-08T07:30:28.337Z,98578.72
2023-01-08T07:32:57.626Z,98580.41
2023-01-08T07:35:25.282Z,98590.75
2023-01-08T07:37:52.942Z,98599.25
2023-01-08T07:40:20.778Z,98597.00
2023-01-08T07:42:48.455Z,98594.72
2023-01-08T07:45:16.087Z,98591.47
2023-01-08T07:47:43.658Z,98597.00
2023-01-08T07:50:11.280Z,98603.69
2023-01-08T07:52:38.966Z,98594.41
2023-01-08T07:55:06.610Z,98600.72
2023-01-08T07:57:34.597Z,98611.91
2023-01-08T08:00:02.223Z,98632.16
2023-01-08T08:02:30.064Z,98648.75
2023-01-08T08:04:57.875Z,98655.25
2023-01-08T08:07:26.001Z,98652.81
2023-01-08T08:09:53.980Z,98642.22
2023-01-08T08:12:21.635Z,98643.09
2023-01-08T08:14:49.261Z,98635.16
2023-01-08T08:17:16.916Z,98644.31
2023-01-08T08:19:45.733Z,98637.06
2023-01-08T08:22:13.747Z,98641.28
2023-01-08T08:24:41.415Z,98644.50
2023-01-08T08:27:09.070Z,98641.31
2023-01-08T08:29:38.768Z,98633.50
2023-01-08T08:32:06.385Z,98616.44
2023-01-08T08:34:34.468Z,98614.34
2023-01-08T08:37:02.123Z,98608.59
2023-01-08T08:39:29.770Z,98604.38
2023-01-08T08:41:57.525Z,98611.06
2023-01-08T08:44:25.222Z,98620.41
2023-01-08T08:46:53.322Z,98611.47
2023-01-08T08:49:21.248Z,98600.69
2023-01-08T08:51:49.481Z,98598.19
2023-01-08T08:54:17.265Z,98595.66
2023-01-08T08:56:45.124Z,98598.47
2023-01-08T08:59:13.887Z,98609.25
2023-01-08T09:01:41.736Z,98600.56
2023-01-08T09:04:09.612Z,98602.69
2023-01-08T09:06:37.553Z,98598.78
2023-01-08T09:09:05.362Z,98602.72
2023-01-08T09:11:33.458Z,98599.66
2023-01-08T09:14:01.678Z,98612.13
2023-01-08T09:16:29.423Z,98611.97
2023-01-08T09:18:57.636Z,98616.16
2023-01-08T09:21:25.300Z,98611.53
2023-01-08T09:23:53.343Z,98608.44
2023-01-08T09:26:21.093Z,98610.22
2023-01-08T09:28:48.861Z,98605.72
2023-01-08T09:31:16.952Z,98603.16
2023-01-08T09:33:44.848Z,98592.94
2023-01-08T09:36:13.516Z,98599.25
2023-01-08T09:38:41.258Z,98600.38
2023-01-08T09:41:09.338Z,98595.50
2023-01-08T09:43:37.590Z,98596.75
2023-01-08T09:46:05.482Z,98590.75
2023-01-08T09:48:33.991Z,98596.44
2023-01-08T09:51:01.730Z,98594.88
2023-01-08T09:53:29.475Z,98595.50
2023-01-08T09:56:09.228Z,98592.66
2023-01-08T09:58:38.431Z,98595.28
2023-01-08T10:01:06.499Z,98594.28
2023-01-08T10:03:34.447Z,98592.91
2023-01-08T10:06:02.479Z,98595.03
2023-01-08T10:08:30.821Z,98587.34
2023-01-08T10:10:59.045Z,98591.16
2023-01-08T10:13:26.940Z,98587.13
2023-01-08T10:15:54.814Z,98580.44
2023-01-08T10:18:22.729Z,98577.09
2023-01-08T10:20:51.004Z,98570.38
2023-01-08T10:23:20.286Z,98576.53
2023-01-08T10:25:48.324Z,98569.38
2023-01-08T10:28:16.177Z,98564.69
2023-01-08T10:30:44.318Z,98559.75
2023-01-08T10:33:12.131Z,98557.81
2023-01-08T10:35:40.295Z,98557.16
2023-01-08T10:38:08.702Z,98551.94
2023-01-08T10:40:36.502Z,98541.72
2023-01-08T10:43:04.664Z,98538.44
2023-01-08T10:45:32.702Z,98532.94
2023-01-08T10:48:01.138Z,98525.81
2023-01-08T10:50:29.038Z,98523.56
2023-01-08T10:52:57.111Z,98510.16
2023-01-08T10:55:25.210Z,98516.72
2023-01-08T10:57:53.086Z,98491.88
2023-01-08T11:00:21.870Z,98480.88
2023-01-08T11:02:50.893Z,98476.28
2023-01-08T11:05:18.731Z,98472.06
2023-01-08T11:07:46.717Z,98477.50
2023-01-08T11:10:14.729Z,98469.31
2023-01-08T11:12:42.962Z,98471.50
2023-01-08T11:15:10.952Z,98470.78
2023-01-08T11:17:38.919Z,98456.47
2023-01-08T11:20:07.695Z,98464.84
2023-01-08T11:22:36.223Z,98450.28
2023-01-08T11:25:04.247Z,98441.22
2023-01-08T11:27:32.189Z,98435.03
2023-01-08T11:30:00.284Z,98425.88
2023-01-08T11:32:28.211Z,98440.19
2023-01-08T11:34:56.152Z,98426.56
2023-01-08T11:37:24.652Z,98427.22
2023-01-08T11:39:52.406Z,98429.94
2023-01-08T11:42:20.320Z,98423.22
2023-01-08T11:44:49.692Z,98417.34
2023-01-08T11:47:17.609Z,98407.22
2023-01-08T11:49:45.785Z,98403.78
2023-01-08T11:52:13.625Z,98415.78
2023-01-08T11:54:41.506Z,98405.31
2023-01-08T11:57:09.960Z,98403.72
2023-01-08T11:59:38.064Z,98406.75
2023-01-08T12:02:06.541Z,98403.88
2023-01-08T12:04:34.330Z,98409.59
2023-01-08T12:07:02.808Z,98410.31
2023-01-08T12:09:31.193Z,98398.22
2023-01-08T12:11:59.043Z,98400.47
2023-01-08T12:14:28.248Z,98397.19
2023-01-08T12:16:56.200Z,98388.03
2023-01-08T12:19:24.146Z,98384.91
2023-01-08T12:21:52.280Z,98382.56
2023-01-08T12:24:20.131Z,98380.78
2023-01-08T12:26:48.304Z,98381.75
2023-01-08T12:29:16.761Z,98365.78
2023-01-08T12:31:48.705Z,98362.09
2023-01-08T12:34:26.032Z,98365.13
2023-01-08T12:36:54.170Z,98358.63
2023-01-08T12:39:22.023Z,98355.78
2023-01-08T12:41:50.120Z,98340.97
2023-01-08T12:44:18.005Z,98338.28
2023-01-08T12:46:46.881Z,98336.78
2023-01-08T12:49:15.202Z,98331.13
2023-01-08T12:51:43.175Z,98340.50
2023-01-08T12:54:11.062Z,98338.78
2023-01-08T12:56:39.161Z,98334.78
2023-01-08T12:59:07.291Z,98321.78
2023-01-08T13:01:35.267Z,98330.78
2023-01-08T13:04:04.645Z,98323.28
2023-01-08T13:06:32.476Z,98330.97
2023-01-08T13:09:01.622Z,98336.09
2023-01-08T13:11:31.715Z,98327.44
2023-01-08T13:13:59.694Z,98328.59
2023-01-08T13:16:27.532Z,98333.72
2023-01-08T13:18:55.572Z,98330.31
2023-01-08T13:21:23.518Z,98323.53
2023-01-08T13:23:51.437Z,98329.78
2023-01-08T13:26:20.092Z,98321.06
2023-01-08T13:28:47.970Z,98329.94
2023-01-08T13:31:15.710Z,98316.31
2023-01-08T13:33:44.673Z,98323.44
2023-01-08T13:36:13.082Z,98324.63
2023-01-08T13:38:41.591Z,98311.19
2023-01-08T13:41:09.679Z,98312.34
2023-01-08T13:43:37.516Z,98318.66
2023-01-08T13:46:05.950Z,98313.03
2023-01-08T13:48:35.098Z,98312.22
2023-01-08T13:51:03.832Z,98309.78
2023-01-08T13:53:31.589Z,98304.91
2023-01-08T13:56:00.066Z,98300.44
2023-01-08T13:58:30.206Z,98312.00
2023-01-08T14:00:59.294Z,98297.88
2023-01-08T14:03:28.160Z,98294.09
2023-01-08T14:05:56.127Z,98298.44
2023-01-08T14:08:24.475Z,98298.81
2023-01-08T14:10:52.540Z,98298.81
2023-01-08T14:13:20.721Z,98290.88
2023-01-08T14:15:49.167Z,98291.88
2023-01-08T14:18:17.350Z,98287.06
2023-01-08T14:20:45.275Z,98295.38
2023-01-08T14:23:13.454Z,98283.13
2023-01-08T14:25:41.459Z,98275.66
2023-01-08T14:28:09.713Z,98273.81
2023-01-08T14:30:38.121Z,98267.31
2023-01-08T14:33:06.210Z,98267.47
2023-01-08T14:35:34.193Z,98273.66
2023-01-08T14:38:03.318Z,98269.66
2023-01-08T14:40:31.692Z,98272.94
2023-01-08T14:42:59.613Z,98277.06
2023-01-08T14:45:27.823Z,98278.03
2023-01-08T14:47:55.935Z,98273.63
2023-01-08T14:50:23.932Z,98262.63
2023-01-08T14:52:52.401Z,98276.16
2023-01-08T14:55:20.479Z,98277.09
2023-01-08T14:57:48.277Z,98272.75
2023-01-08T15:00:16.685Z,98267.19
2023-01-08T15:02:46.709Z,98270.19
2023-01-08T15:05:15.087Z,98270.66
2023-01-08T15:07:43.120Z,98265.97
2023-01-08T15:10:11.117Z,98260.47
2023-01-08T15:12:39.018Z,98252.13
2023-01-08T15:15:06.986Z,98264.88
2023-01-08T15:17:35.351Z,98258.22
2023-01-08T15:20:03.244Z,98259.50
2023-01-08T15:22:33.187Z,98256.47
2023-01-08T15:25:01.464Z,98250.63
2023-01-08T15:27:31.544Z,98250.97
2023-01-08T15:30:01.017Z,98254.09
2023-01-08T15:32:29.152Z,98261.66
2023-01-08T15:34:57.060Z,98260.31
2023-01-08T15:37:25.067Z,98255.16
2023-01-08T15:39:53.491Z,98252.38
2023-01-08T15:42:41.236Z,98254.84
2023-01-08T15:45:09.204Z,98252.72
2023-01-08T15:47:37.151Z,98255.22
2023-01-08T15:50:05.414Z,98258.53
2023-01-08T15:52:33.476Z,98247.63
2023-01-08T15:55:02.370Z,98250.63
2023-01-08T15:57:30.782Z,98254.81
2023-01-08T15:59:58.662Z,98253.66
2023-01-08T16:02:27.114Z,98254.53
2023-01-08T16:04:55.440Z,98248.69
2023-01-08T16:07:24.327Z,98248.16
2023-01-08T16:09:52.136Z,98245.78
2023-01-08T16:12:20.059Z,98244.47
2023-01-08T16:14:48.508Z,98239.75
2023-01-08T16:17:16.569Z,98234.25
2023-01-08T16:19:45.232Z,98240.00
2023-01-08T16:22:13.247Z,98235.66
2023-01-08T16:24:41.202Z,98241.28
2023-01-08T16:27:11.184Z,98240.47
2023-01-08T16:29:39.445Z,98234.47
2023-01-08T16:32:07.711Z,98240.63
2023-01-08T16:34:35.746Z,98240.47
2023-01-08T16:37:03.845Z,98235.66
2023-01-08T16:39:32.386Z,98229.94
2023-01-08T16:42:00.291Z,98232.13
2023-01-08T16:44:29.351Z,98242.25
2023-01-08T16:46:57.234Z,98224.50
2023-01-08T16:49:25.269Z,98222.91
2023-01-08T16:51:53.435Z,98228.09
2023-01-08T16:54:21.887Z,98223.19
2023-01-08T16:56:50.297Z,98223.44
2023-01-08T16:59:23.809Z,98229.63
2023-01-08T17:01:51.992Z,98222.97
2023-01-08T17:04:20.238Z,98223.97
2023-01-08T17:06:48.238Z,98226.91
2023-01-08T17:09:16.440Z,98219.25
2023-01-08T17:11:46.088Z,98221.06
2023-01-08T17:14:14.240Z,98210.31
2023-01-08T17:16:43.069Z,98215.34
2023-01-08T17:19:11.215Z,98210.84
2023-01-08T17:21:39.584Z,98214.50
2023-01-08T17:24:07.519Z,98204.03
2023-01-08T17:26:35.583Z,98210.31
2023-01-08T17:29:03.708Z,98204.34
2023-01-08T17:31:36.934Z,98207.28
2023-01-08T17:34:05.327Z,98209.25
2023-01-08T17:36:34.299Z,98197.66
2023-01-08T17:39:02.372Z,98180.75
2023-01-08T17:41:47.450Z,98184.09
2023-01-08T17:44:16.353Z,98178.50
2023-01-08T17:46:45.464Z,98183.34
2023-01-08T17:49:13.367Z,98182.59
2023-01-08T17:51:42.427Z,98177.63
2023-01-08T17:54:10.421Z,98171.06
2023-01-08T17:56:38.628Z,98169.06
2023-01-08T17:59:06.692Z,98164.59
2023-01-08T18:01:35.452Z,98168.06
2023-01-08T18:04:03.508Z,98176.34
2023-01-08T18:06:31.446Z,98165.88
2023-01-08T18:09:00.477Z,98171.38
2023-01-08T18:11:28.447Z,98178.47
2023-01-08T18:13:56.861Z,98163.56
2023-01-08T18:16:25.035Z,98168.88
2023-01-08T18:18:53.026Z,98166.50
2023-01-08T18:21:21.677Z,98161.88
2023-01-08T18:23:49.629Z,98173.03
2023-01-08T18:26:17.518Z,98162.41
2023-01-08T18:28:45.634Z,98167.19
2023-01-08T18:31:13.550Z,98165.00
2023-01-08T18:33:42.523Z,98164.47
2023-01-08T18:36:11.081Z,98158.47
2023-01-08T18:38:38.966Z,98154.34
2023-01-08T18:41:06.783Z,98147.34
2023-01-08T18:43:35.787Z,98155.28
2023-01-08T18:46:05.525Z,98146.38
2023-01-08T18:48:33.499Z,98130.13
2023-01-08T18:51:05.660Z,98134.66
2023-01-08T18:53:33.574Z,98130.41
2023-01-08T18:56:01.555Z,98130.94
2023-01-08T18:58:30.041Z,98122.69
2023-01-08T19:00:57.983Z,98109.41
2023-01-08T19:03:25.863Z,98108.03
2023-01-08T19:05:53.911Z,98105.41
2023-01-08T19:08:21.703Z,98102.91
2023-01-08T19:10:50.509Z,98103.06
2023-01-08T19:13:19.448Z,98095.25
2023-01-08T19:15:47.319Z,98080.31
2023-01-08T19:18:15.203Z,98088.94
2023-01-08T19:20:43.540Z,98087.28
2023-01-08T19:23:12.150Z,98078.66
2023-01-08T19:25:40.026Z,98078.81
2023-01-08T19:28:07.966Z,98069.72
2023-01-08T19:30:35.892Z,98072.38
2023-01-08T19:33:03.864Z,98067.72
2023-01-08T19:35:32.541Z,98060.28
2023-01-08T19:38:00.498Z,98060.97
2023-01-08T19:40:28.721Z,98049.53
2023-01-08T19:43:14.245Z,98052.34
2023-01-08T19:45:43.356Z,98038.53
2023-01-08T19:48:11.146Z,98038.03
2023-01-08T19:50:39.276Z,98030.25
2023-01-08T19:53:07.163Z,98035.03
2023-01-08T19:55:35.199Z,98036.00
2023-01-08T19:58:03.914Z,98031.69
2023-01-08T20:00:37.582Z,98038.81
2023-01-08T20:03:05.652Z,98040.00
2023-01-08T20:05:33.521Z,98042.03
2023-01-08T20:08:01.465Z,98035.28
2023-01-08T20:10:29.707Z,98031.00
2023-01-08T20:12:57.556Z,98040.16
2023-01-08T20:15:25.465Z,98026.25
2023-01-08T20:17:53.591Z,98020.31
2023-01-08T20:20:21.400Z,98027.66
2023-01-08T20:22:51.422Z,98014.72
2023-01-08T20:25:19.354Z,98011.75
2023-01-08T20:27:47.200Z,98003.47
2023-01-08T20:30:15.321Z,98004.81
2023-01-08T20:32:43.262Z,98005.47
2023-01-08T20:35:11.597Z,97994.38
2023-01-08T20:37:39.566Z,97989.56
2023-01-08T20:40:07.516Z,97988.22
2023-01-08T20:42:35.404Z,97993.25
2023-01-08T20:45:03.798Z,97991.09
2023-01-08T20:47:32.513Z,97989.94
2023-01-08T20:50:03.187Z,97985.44
2023-01-08T20:52:33.017Z,97985.63
2023-01-08T20:55:00.840Z,97981.63
2023-01-08T20:57:28.728Z,97985.28
2023-01-08T20:59:57.476Z,97977.59
2023-01-08T21:02:25.461Z,97966.34
2023-01-08T21:04:55.205Z,97968.31
2023-01-08T21:07:23.725Z,97960.84
2023-01-08T21:09:51.649Z,97954.88
2023-01-08T21:12:20.272Z,97958.97
2023-01-08T21:14:48.363Z,97948.38
2023-01-08T21:17:16.309Z,97942.25
2023-01-08T21:19:44.341Z,97937.44
2023-01-08T21:22:12.361Z,97928.13
2023-01-08T21:24:40.589Z,97927.84
2023-01-08T21:27:08.467Z,97930.16
2023-01-08T21:29:36.863Z,97929.16
2023-01-08T21:32:05.513Z,97910.56
2023-01-08T21:34:33.534Z,97901.78
2023-01-08T21:37:05.213Z,97906.91
2023-01-08T21:39:33.286Z,97902.59
2023-01-08T21:42:14.878Z,97901.59
2023-01-08T21:45:08.479Z,97893.31
2023-01-08T21:47:37.395Z,97881.03
2023-01-08T21:50:05.342Z,97875.72
2023-01-08T21:52:50.717Z,97869.41
2023-01-08T21:55:18.670Z,97859.78
2023-01-08T21:57:47.085Z,97851.97
2023-01-08T22:00:15.116Z,97867.91
2023-01-08T22:02:43.145Z,97852.78
2023-01-08T22:05:11.016Z,97856.44
2023-01-08T22:07:39.094Z,97846.66
2023-01-08T22:10:08.908Z,97848.47
2023-01-08T22:12:36.862Z,97841.88
2023-01-08T22:15:05.009Z,97840.50
2023-01-08T22:17:32.834Z,97831.22
2023-01-08T22:20:01.661Z,97822.09
2023-01-08T22:22:30.267Z,97815.63
2023-01-08T22:24:58.106Z,97809.97
2023-01-08T22:27:25.849Z,97808.81
2023-01-08T22:29:54.891Z,97807.66
2023-01-08T22:32:23.047Z,97809.31
2023-01-08T22:34:52.207Z,97804.00
2023-01-08T22:37:22.238Z,97802.34
2023-01-08T22:39:50.231Z,97803.34
2023-01-08T22:42:18.209Z,97798.03
2023-01-08T22:44:46.148Z,97789.38
2023-01-08T22:47:14.091Z,97788.72
2023-01-08T22:49:41.829Z,97789.56
2023-01-08T22:52:10.342Z,97792.38
2023-01-08T22:54:38.628Z,97788.72
2023-01-08T22:57:06.341Z,97779.75
2023-01-08T22:59:34.517Z,97782.25
2023-01-08T23:02:02.292Z,97772.63
2023-01-08T23:04:29.989Z,97777.09
2023-01-08T23:06:57.788Z,97785.91
2023-01-08T23:09:25.910Z,97764.81
2023-01-08T23:11:54.653Z,97751.53
2023-01-08T23:14:22.423Z,97756.84
2023-01-08T23:16:50.373Z,97741.75
2023-01-08T23:19:18.277Z,97747.72
2023-01-08T23:21:46.045Z,97747.56
2023-01-08T23:24:14.407Z,97740.25
2023-01-08T23:26:42.125Z,97735.75
2023-01-08T23:29:10.792Z,97734.94
2023-01-08T23:31:38.999Z,97743.53
2023-01-08T23:34:06.741Z,97731.91
2023-01-08T23:36:36.407Z,97742.38
2023-01-08T23:39:04.271Z,97737.06
2023-01-08T23:41:35.467Z,97739.72
2023-01-08T23:44:03.364Z,97748.50
2023-01-08T23:46:31.106Z,97749.34
2023-01-08T23:48:59.524Z,97754.19
2023-01-08T23:51:27.307Z,97753.03
2023-01-08T23:53:54.999Z,97740.41
2023-01-08T23:56:22.639Z,97747.56
2023-01-08T23:58:50.371Z,97745.09
